createdAt,value
2023-01-26T00:00:12.870Z,5.70
2023-01-26T00:02:41.700Z,5.70
2023-01-26T00:05:11.021Z,5.70
2023-01-26T00:07:42.701Z,5.70
2023-01-26T00:10:12.460Z,5.70
2023-01-26T00:12:42.237Z,5.70
2023-01-26T00:15:10.984Z,5.70
2023-01-26T00:17:40.142Z,5.70
2023-01-26T00:20:11.406Z,5.70
2023-01-26T00:22:40.393Z,5.70
2023-01-26T00:25:09.868Z,5.70
2023-01-26T00:27:38.485Z,5.60
2023-01-26T00:30:10.930Z,5.70
2023-01-26T00:32:40.060Z,5.70
2023-01-26T00:35:09.906Z,5.70
2023-01-26T00:37:38.339Z,5.70
2023-01-26T00:40:07.728Z,5.70
2023-01-26T00:42:36.128Z,5.70
2023-01-26T00:45:05.373Z,5.70
2023-01-26T00:47:35.049Z,5.70
2023-01-26T00:50:03.445Z,5.70
2023-01-26T00:52:31.846Z,5.70
2023-01-26T00:55:00.111Z,5.70
2023-01-26T00:57:28.530Z,5.70
2023-01-26T00:59:58.098Z,5.70
2023-01-26T01:02:26.546Z,5.80
2023-01-26T01:04:56.233Z,5.70
2023-01-26T01:07:24.691Z,5.80
2023-01-26T01:09:53.034Z,5.80
2023-01-26T01:12:21.438Z,5.70
2023-01-26T01:14:49.671Z,5.80
2023-01-26T01:17:17.998Z,5.80
2023-01-26T01:19:47.398Z,5.70
2023-01-26T01:22:17.096Z,5.70
2023-01-26T01:24:45.426Z,5.70
2023-01-26T01:27:13.853Z,5.70
2023-01-26T01:29:42.105Z,5.70
2023-01-26T01:32:10.405Z,5.70
2023-01-26T01:34:38.803Z,5.70
2023-01-26T01:37:07.089Z,5.70
2023-01-26T01:39:36.796Z,5.70
2023-01-26T01:42:05.551Z,5.70
2023-01-26T01:44:37.489Z,5.70
2023-01-26T01:47:11.254Z,5.70
2023-01-26T01:49:45.568Z,5.70
2023-01-26T01:52:18.087Z,5.80
2023-01-26T01:54:53.702Z,5.70
2023-01-26T01:57:27.863Z,5.70
2023-01-26T02:00:01.250Z,5.70
2023-01-26T02:02:30.341Z,5.70
2023-01-26T02:05:05.381Z,5.70
2023-01-26T02:07:34.522Z,5.70
2023-01-26T02:10:20.425Z,5.70
2023-01-26T02:12:53.201Z,5.60
2023-01-26T02:15:21.461Z,5.60
2023-01-26T02:17:52.316Z,5.60
2023-01-26T02:20:30.139Z,5.60
2023-01-26T02:23:07.105Z,5.60
2023-01-26T02:25:46.133Z,5.60
2023-01-26T02:28:15.918Z,5.60
2023-01-26T02:30:44.500Z,5.60
2023-01-26T02:33:16.662Z,5.60
2023-01-26T02:35:45.045Z,5.60
2023-01-26T02:38:14.506Z,5.60
2023-01-26T02:40:51.008Z,5.50
2023-01-26T02:43:21.629Z,5.60
2023-01-26T02:45:49.936Z,5.60
2023-01-26T02:48:39.005Z,5.60
2023-01-26T02:51:07.002Z,5.60
2023-01-26T02:53:35.924Z,5.60
2023-01-26T02:56:03.439Z,5.60
2023-01-26T02:58:33.405Z,5.60
2023-01-26T03:01:01.773Z,5.60
2023-01-26T03:03:42.491Z,5.60
2023-01-26T03:06:12.386Z,5.60
2023-01-26T03:08:41.272Z,5.60
2023-01-26T03:11:10.580Z,5.60
2023-01-26T03:13:40.627Z,5.60
2023-01-26T03:16:11.919Z,5.70
2023-01-26T03:18:58.189Z,5.60
2023-01-26T03:21:44.266Z,5.60
2023-01-26T03:24:33.622Z,5.60
2023-01-26T03:27:23.299Z,5.60
2023-01-26T03:29:53.966Z,5.60
2023-01-26T03:32:22.542Z,5.60
2023-01-26T03:34:52.459Z,5.60
2023-01-26T03:37:22.637Z,5.60
2023-01-26T03:40:17.296Z,5.60
2023-01-26T03:43:03.427Z,5.60
2023-01-26T03:45:50.782Z,5.60
2023-01-26T03:48:39.267Z,5.60
2023-01-26T03:51:25.390Z,5.60
2023-01-26T03:54:11.292Z,5.60
2023-01-26T03:56:40.041Z,5.60
2023-01-26T03:59:15.768Z,5.60
2023-01-26T04:02:06.219Z,5.60
2023-01-26T04:04:54.226Z,5.60
2023-01-26T04:07:44.752Z,5.60
2023-01-26T04:10:13.552Z,5.60
2023-01-26T04:12:43.284Z,5.60
2023-01-26T04:15:35.542Z,5.60
2023-01-26T04:18:26.256Z,5.60
2023-01-26T04:21:13.421Z,5.60
2023-01-26T04:23:44.222Z,5.60
2023-01-26T04:26:12.586Z,5.60
2023-01-26T04:28:41.347Z,5.60
2023-01-26T04:31:10.332Z,5.60
2023-01-26T04:33:40.848Z,5.60
2023-01-26T04:36:11.456Z,5.60
2023-01-26T04:38:43.897Z,5.60
2023-01-26T04:41:13.925Z,5.60
2023-01-26T04:43:46.961Z,5.60
2023-01-26T04:46:19.142Z,5.60
2023-01-26T04:48:49.044Z,5.70
2023-01-26T04:51:20.796Z,5.50
2023-01-26T04:53:50.647Z,5.50
2023-01-26T04:56:25.404Z,5.50
2023-01-26T04:58:56.308Z,5.50
2023-01-26T05:01:25.685Z,5.50
2023-01-26T05:03:55.825Z,5.50
2023-01-26T05:06:24.672Z,5.50
2023-01-26T05:08:53.307Z,5.50
2023-01-26T05:11:21.673Z,5.50
2023-01-26T05:14:07.625Z,5.50
2023-01-26T05:16:48.978Z,5.50
2023-01-26T05:19:28.992Z,5.50
2023-01-26T05:22:14.673Z,5.40
2023-01-26T05:24:55.172Z,5.40
2023-01-26T05:27:38.001Z,5.40
2023-01-26T05:30:07.659Z,5.40
2023-01-26T05:32:37.879Z,5.40
2023-01-26T05:35:09.662Z,5.40
2023-01-26T05:37:38.334Z,5.40
2023-01-26T05:40:08.148Z,5.40
2023-01-26T05:42:36.643Z,5.40
2023-01-26T05:45:24.798Z,5.40
2023-01-26T05:47:56.404Z,5.40
2023-01-26T05:50:26.185Z,5.40
2023-01-26T05:53:16.179Z,5.60
2023-01-26T05:55:45.123Z,5.40
2023-01-26T05:58:14.211Z,5.40
2023-01-26T06:00:42.540Z,5.40
2023-01-26T06:03:17.929Z,5.30
2023-01-26T06:05:54.955Z,5.30
2023-01-26T06:08:32.423Z,5.70
2023-01-26T06:11:36.464Z,5.30
2023-01-26T06:14:12.760Z,5.30
2023-01-26T06:16:41.541Z,5.30
2023-01-26T06:19:11.323Z,5.20
2023-01-26T06:21:42.241Z,5.40
2023-01-26T06:24:11.067Z,5.20
2023-01-26T06:26:39.378Z,5.20
2023-01-26T06:29:09.063Z,5.30
2023-01-26T06:31:38.228Z,5.20
2023-01-26T06:34:07.507Z,5.30
2023-01-26T06:36:41.610Z,5.20
2023-01-26T06:39:13.926Z,5.20
2023-01-26T06:41:45.055Z,5.30
2023-01-26T06:44:13.927Z,5.30
2023-01-26T06:46:49.497Z,5.30
2023-01-26T06:49:17.933Z,5.30
2023-01-26T06:51:57.357Z,5.30
2023-01-26T06:54:38.692Z,5.30
2023-01-26T06:57:33.232Z,5.30
2023-01-26T07:00:21.373Z,5.20
2023-01-26T07:03:01.017Z,5.30
2023-01-26T07:05:29.378Z,5.30
2023-01-26T07:08:02.296Z,5.30
2023-01-26T07:10:30.731Z,5.30
2023-01-26T07:12:59.082Z,5.30
2023-01-26T07:15:27.475Z,5.30
2023-01-26T07:17:55.842Z,5.30
2023-01-26T07:20:24.752Z,5.30
2023-01-26T07:22:53.573Z,5.30
2023-01-26T07:25:23.268Z,5.30
2023-01-26T07:27:57.357Z,5.30
2023-01-26T07:30:26.064Z,5.30
2023-01-26T07:32:55.048Z,5.30
2023-01-26T07:35:23.396Z,5.30
2023-01-26T07:37:51.729Z,5.30
2023-01-26T07:40:20.303Z,5.30
2023-01-26T07:42:49.952Z,5.30
2023-01-26T07:45:41.085Z,5.40
2023-01-26T07:48:09.712Z,5.40
2023-01-26T07:50:38.073Z,5.40
2023-01-26T07:53:06.736Z,5.30
2023-01-26T07:55:35.069Z,5.30
2023-01-26T07:58:04.749Z,5.40
2023-01-26T08:00:33.146Z,5.30
2023-01-26T08:03:01.651Z,5.30
2023-01-26T08:05:30.018Z,5.30
2023-01-26T08:07:59.484Z,5.30
2023-01-26T08:10:28.212Z,5.30
2023-01-26T08:12:56.531Z,5.30
2023-01-26T08:15:26.650Z,5.30
2023-01-26T08:17:55.840Z,5.30
2023-01-26T08:20:24.518Z,5.30
2023-01-26T08:22:52.896Z,5.20
2023-01-26T08:25:21.230Z,5.20
2023-01-26T08:27:49.507Z,5.20
2023-01-26T08:30:19.067Z,5.20
2023-01-26T08:32:48.719Z,5.20
2023-01-26T08:35:17.221Z,5.20
2023-01-26T08:37:45.564Z,5.10
2023-01-26T08:40:14.789Z,5.10
2023-01-26T08:42:43.072Z,5.10
2023-01-26T08:45:12.530Z,5.00
2023-01-26T08:47:40.828Z,5.00
2023-01-26T08:50:12.638Z,5.00
2023-01-26T08:52:41.183Z,5.00
2023-01-26T08:55:10.683Z,5.00
2023-01-26T08:57:38.976Z,5.00
2023-01-26T09:00:09.315Z,5.00
2023-01-26T09:02:37.964Z,5.00
2023-01-26T09:05:07.941Z,5.00
2023-01-26T09:07:37.700Z,5.00
2023-01-26T09:10:08.441Z,5.00
2023-01-26T09:12:37.708Z,5.00
2023-01-26T09:15:09.340Z,5.00
2023-01-26T09:17:38.234Z,5.00
2023-01-26T09:20:08.850Z,5.00
2023-01-26T09:22:38.794Z,5.00
2023-01-26T09:25:08.512Z,4.90
2023-01-26T09:27:37.253Z,5.00
2023-01-26T09:30:08.433Z,4.90
2023-01-26T09:32:36.774Z,5.00
2023-01-26T09:35:05.801Z,5.00
2023-01-26T09:37:34.148Z,5.00
2023-01-26T09:40:03.920Z,5.00
2023-01-26T09:42:47.091Z,5.10
2023-01-26T09:45:28.440Z,5.10
2023-01-26T09:48:16.182Z,5.10
2023-01-26T09:50:51.245Z,5.10
2023-01-26T09:53:25.582Z,5.10
2023-01-26T09:55:56.601Z,5.10
2023-01-26T09:58:35.723Z,5.10
2023-01-26T10:01:05.869Z,5.30
2023-01-26T10:03:43.082Z,5.20
2023-01-26T10:06:17.377Z,5.20
2023-01-26T10:09:08.486Z,5.20
2023-01-26T10:11:43.777Z,5.20
2023-01-26T10:14:17.394Z,5.20
2023-01-26T10:16:48.718Z,5.20
2023-01-26T10:19:26.865Z,5.20
2023-01-26T10:21:56.971Z,5.20
2023-01-26T10:24:25.358Z,5.20
2023-01-26T10:26:58.723Z,5.20
2023-01-26T10:29:27.255Z,5.20
2023-01-26T10:31:56.281Z,5.20
2023-01-26T10:34:27.378Z,5.30
2023-01-26T10:37:06.955Z,5.30
2023-01-26T10:39:35.277Z,5.30
2023-01-26T10:42:05.592Z,5.30
2023-01-26T10:44:35.823Z,5.30
2023-01-26T10:47:08.578Z,5.40
2023-01-26T10:49:37.711Z,5.40
2023-01-26T10:52:17.462Z,5.40
2023-01-26T10:54:46.813Z,5.40
2023-01-26T10:57:25.501Z,5.40
2023-01-26T10:59:58.399Z,5.40
2023-01-26T11:02:29.953Z,5.40
2023-01-26T11:05:23.175Z,5.40
2023-01-26T11:07:55.311Z,5.40
2023-01-26T11:10:28.927Z,5.50
2023-01-26T11:13:25.989Z,5.50
2023-01-26T11:16:05.249Z,5.50
2023-01-26T11:18:43.669Z,5.50
2023-01-26T11:21:17.448Z,5.50
2023-01-26T11:24:00.612Z,5.50
2023-01-26T11:27:08.235Z,5.50
2023-01-26T11:30:07.363Z,5.50
2023-01-26T11:32:47.691Z,5.50
2023-01-26T11:35:34.385Z,5.50
2023-01-26T11:38:21.152Z,5.50
2023-01-26T11:40:58.656Z,5.50
2023-01-26T11:43:46.249Z,5.50
2023-01-26T11:46:34.464Z,5.50
2023-01-26T11:49:21.856Z,5.50
2023-01-26T11:52:03.952Z,5.50
2023-01-26T11:54:59.478Z,5.50
2023-01-26T11:57:39.293Z,5.50
2023-01-26T12:00:29.637Z,5.50
2023-01-26T12:03:04.733Z,5.50
2023-01-26T12:05:41.551Z,5.50
2023-01-26T12:08:17.194Z,5.50
2023-01-26T12:10:51.641Z,5.50
2023-01-26T12:13:34.475Z,5.50
2023-01-26T12:16:10.164Z,5.50
2023-01-26T12:18:58.828Z,5.50
2023-01-26T12:21:38.630Z,5.50
2023-01-26T12:24:35.806Z,5.60
2023-01-26T12:27:00.348Z,5.50
2023-01-26T12:29:38.637Z,5.50
2023-01-26T12:32:12.388Z,5.70
2023-01-26T12:34:42.330Z,5.50
2023-01-26T12:37:36.300Z,5.50
2023-01-26T12:40:32.696Z,5.50
2023-01-26T12:43:20.333Z,5.80
2023-01-26T12:45:54.625Z,5.40
2023-01-26T12:48:31.627Z,5.50
2023-01-26T12:51:07.590Z,5.40
2023-01-26T12:53:49.234Z,5.40
2023-01-26T12:56:25.475Z,5.40
2023-01-26T12:58:56.953Z,5.40
2023-01-26T13:01:29.056Z,5.40
2023-01-26T13:03:59.702Z,5.40
2023-01-26T13:06:30.554Z,5.40
2023-01-26T13:09:06.033Z,5.40
2023-01-26T13:11:50.491Z,5.70
2023-01-26T13:15:00.500Z,5.40
2023-01-26T13:17:54.978Z,5.40
2023-01-26T13:20:49.888Z,5.40
2023-01-26T13:23:53.139Z,5.40
2023-01-26T13:26:26.896Z,5.40
2023-01-26T13:29:35.402Z,5.40
2023-01-26T13:32:55.865Z,5.40
2023-01-26T13:35:26.904Z,5.40
2023-01-26T13:38:03.427Z,5.40
2023-01-26T13:40:36.657Z,5.40
2023-01-26T13:43:26.322Z,5.40
2023-01-26T13:46:26.889Z,5.40
2023-01-26T13:48:57.161Z,5.40
2023-01-26T13:51:28.479Z,5.30
2023-01-26T13:54:02.493Z,5.30
2023-01-26T13:56:35.534Z,5.30
2023-01-26T13:59:13.006Z,5.30
2023-01-26T14:01:46.142Z,5.30
2023-01-26T14:04:20.098Z,5.30
2023-01-26T14:06:54.342Z,5.30
2023-01-26T14:09:22.819Z,5.30
2023-01-26T14:12:00.720Z,5.30
2023-01-26T14:14:31.448Z,5.30
2023-01-26T14:17:00.805Z,5.40
2023-01-26T14:19:29.806Z,5.20
2023-01-26T14:22:00.473Z,5.20
2023-01-26T14:24:34.668Z,5.20
2023-01-26T14:27:05.487Z,5.20
2023-01-26T14:29:39.974Z,5.20
2023-01-26T14:32:17.008Z,5.20
2023-01-26T14:34:54.423Z,5.20
2023-01-26T14:37:24.360Z,5.20
2023-01-26T14:40:12.173Z,5.30
2023-01-26T14:42:42.573Z,5.20
2023-01-26T14:45:14.222Z,5.20
2023-01-26T14:47:43.511Z,5.20
2023-01-26T14:50:17.600Z,5.20
2023-01-26T14:52:47.409Z,5.20
2023-01-26T14:55:23.269Z,5.20
2023-01-26T14:57:54.040Z,5.20
2023-01-26T15:00:28.275Z,5.20
2023-01-26T15:02:59.102Z,5.20
2023-01-26T15:05:35.433Z,5.20
2023-01-26T15:08:06.973Z,5.20
2023-01-26T15:10:38.920Z,5.20
2023-01-26T15:13:21.873Z,5.20
2023-01-26T15:16:05.030Z,5.20
2023-01-26T15:18:34.983Z,5.20
2023-01-26T15:21:14.699Z,5.10
2023-01-26T15:23:45.636Z,5.10
2023-01-26T15:26:27.565Z,5.10
2023-01-26T15:28:59.488Z,5.10
2023-01-26T15:31:33.619Z,5.10
2023-01-26T15:34:02.473Z,5.00
2023-01-26T15:36:36.912Z,5.00
2023-01-26T15:39:14.013Z,5.00
2023-01-26T15:41:43.444Z,5.00
2023-01-26T15:44:19.465Z,4.90
2023-01-26T15:46:48.249Z,4.90
2023-01-26T15:49:19.932Z,4.90
2023-01-26T15:51:48.309Z,4.90
2023-01-26T15:54:16.639Z,5.00
2023-01-26T15:56:46.351Z,4.80
2023-01-26T15:59:16.077Z,4.80
2023-01-26T16:01:44.575Z,4.90
2023-01-26T16:04:14.767Z,5.00
2023-01-26T16:06:43.271Z,4.80
2023-01-26T16:09:11.562Z,4.80
2023-01-26T16:11:49.074Z,4.80
2023-01-26T16:14:19.741Z,4.80
2023-01-26T16:16:48.176Z,4.80
2023-01-26T16:19:33.683Z,4.80
2023-01-26T16:22:03.512Z,4.80
2023-01-26T16:24:31.832Z,5.00
2023-01-26T16:27:00.144Z,4.80
2023-01-26T16:29:31.294Z,4.80
2023-01-26T16:32:00.424Z,4.80
2023-01-26T16:34:29.170Z,4.80
2023-01-26T16:36:57.536Z,4.80
2023-01-26T16:39:25.821Z,4.80
2023-01-26T16:41:54.173Z,4.80
2023-01-26T16:44:24.282Z,4.80
2023-01-26T16:46:53.946Z,4.80
2023-01-26T16:49:22.452Z,4.80
2023-01-26T16:51:50.800Z,4.80
2023-01-26T16:54:19.113Z,4.80
2023-01-26T16:56:47.506Z,4.80
2023-01-26T16:59:15.767Z,4.80
2023-01-26T17:01:44.100Z,4.80
2023-01-26T17:04:13.912Z,4.80
2023-01-26T17:06:42.237Z,4.80
2023-01-26T17:09:10.862Z,4.80
2023-01-26T17:11:39.224Z,4.80
2023-01-26T17:14:07.546Z,4.80
2023-01-26T17:16:37.033Z,4.70
2023-01-26T17:19:07.314Z,4.70
2023-01-26T17:21:38.600Z,4.70
2023-01-26T17:24:07.941Z,4.70
2023-01-26T17:26:36.320Z,4.70
2023-01-26T17:29:04.624Z,4.70
2023-01-26T17:31:33.292Z,4.60
2023-01-26T17:34:01.567Z,4.60
2023-01-26T17:36:29.928Z,4.50
2023-01-26T17:38:59.739Z,4.50
2023-01-26T17:41:28.669Z,4.50
2023-01-26T17:43:56.997Z,4.40
2023-01-26T17:46:25.375Z,4.40
2023-01-26T17:48:56.047Z,4.30
2023-01-26T17:51:24.394Z,4.30
2023-01-26T17:53:54.292Z,4.30
2023-01-26T17:56:25.041Z,4.20
2023-01-26T17:58:55.650Z,4.20
2023-01-26T18:01:26.606Z,4.20
2023-01-26T18:03:55.008Z,4.20
2023-01-26T18:06:23.892Z,4.20
2023-01-26T18:08:52.376Z,4.30
2023-01-26T18:11:20.869Z,4.20
2023-01-26T18:13:51.831Z,4.20
2023-01-26T18:16:21.815Z,4.20
2023-01-26T18:18:55.166Z,4.20
2023-01-26T18:21:27.093Z,4.20
2023-01-26T18:23:57.934Z,4.20
2023-01-26T18:26:29.213Z,4.20
2023-01-26T18:28:59.221Z,4.20
2023-01-26T18:31:30.415Z,4.20
2023-01-26T18:34:00.592Z,4.20
2023-01-26T18:36:29.664Z,4.20
2023-01-26T18:39:01.099Z,4.20
2023-01-26T18:41:31.626Z,4.20
2023-01-26T18:44:03.300Z,4.20
2023-01-26T18:46:31.958Z,4.20
2023-01-26T18:49:00.942Z,4.20
2023-01-26T18:51:30.309Z,4.20
2023-01-26T18:53:59.050Z,4.20
2023-01-26T18:56:28.201Z,4.50
2023-01-26T18:58:56.556Z,4.30
2023-01-26T19:01:26.849Z,4.30
2023-01-26T19:03:56.034Z,4.30
2023-01-26T19:06:26.039Z,4.30
2023-01-26T19:09:00.314Z,4.30
2023-01-26T19:11:30.869Z,4.30
2023-01-26T19:13:59.869Z,4.30
2023-01-26T19:16:30.247Z,4.30
2023-01-26T19:18:59.366Z,4.30
2023-01-26T19:21:28.865Z,4.20
2023-01-26T19:24:02.449Z,4.30
2023-01-26T19:26:31.037Z,4.30
2023-01-26T19:29:00.280Z,4.20
2023-01-26T19:31:30.755Z,4.20
2023-01-26T19:34:01.285Z,4.20
2023-01-26T19:36:32.222Z,4.50
2023-01-26T19:39:00.685Z,4.20
2023-01-26T19:41:29.416Z,4.20
2023-01-26T19:43:57.992Z,4.10
2023-01-26T19:46:26.376Z,4.10
2023-01-26T19:48:56.051Z,4.00
2023-01-26T19:51:26.699Z,4.00
2023-01-26T19:53:57.355Z,4.00
2023-01-26T19:56:27.849Z,4.10
2023-01-26T19:58:58.595Z,3.90
2023-01-26T20:01:28.845Z,3.90
2023-01-26T20:04:01.141Z,3.80
2023-01-26T20:06:32.851Z,3.80
2023-01-26T20:09:03.520Z,3.80
2023-01-26T20:11:32.000Z,3.80
2023-01-26T20:14:02.202Z,3.80
2023-01-26T20:16:31.646Z,3.80
2023-01-26T20:19:01.655Z,3.90
2023-01-26T20:21:31.647Z,3.90
2023-01-26T20:24:05.736Z,3.90
2023-01-26T20:26:35.348Z,3.90
2023-01-26T20:29:04.353Z,3.90
2023-01-26T20:31:33.710Z,4.00
2023-01-26T20:34:03.555Z,3.90
2023-01-26T20:36:34.007Z,3.90
2023-01-26T20:39:03.276Z,3.90
2023-01-26T20:41:33.721Z,3.90
2023-01-26T20:44:05.551Z,3.90
2023-01-26T20:46:37.534Z,3.90
2023-01-26T20:49:09.578Z,3.80
2023-01-26T20:51:40.497Z,3.80
2023-01-26T20:54:11.555Z,3.80
2023-01-26T20:56:40.853Z,3.80
2023-01-26T20:59:09.875Z,3.80
2023-01-26T21:01:38.142Z,3.80
2023-01-26T21:04:08.282Z,3.80
2023-01-26T21:06:37.053Z,3.80
2023-01-26T21:09:06.174Z,3.80
2023-01-26T21:11:35.706Z,3.80
2023-01-26T21:14:04.804Z,3.90
2023-01-26T21:16:35.641Z,4.50
2023-01-26T21:19:04.118Z,3.90
2023-01-26T21:21:34.037Z,3.90
2023-01-26T21:24:02.415Z,3.90
2023-01-26T21:26:30.857Z,3.90
2023-01-26T21:29:01.345Z,4.00
2023-01-26T21:31:32.751Z,4.00
2023-01-26T21:34:02.600Z,4.00
2023-01-26T21:36:34.195Z,4.00
2023-01-26T21:39:02.866Z,4.00
2023-01-26T21:41:50.927Z,4.40
2023-01-26T21:44:22.339Z,4.00
2023-01-26T21:46:52.957Z,4.10
2023-01-26T21:49:21.921Z,4.10
2023-01-26T21:52:09.870Z,4.10
2023-01-26T21:54:38.479Z,4.10
2023-01-26T21:57:29.797Z,4.10
2023-01-26T21:59:57.404Z,4.10
2023-01-26T22:02:25.936Z,4.10
2023-01-26T22:04:54.347Z,4.10
2023-01-26T22:07:24.071Z,4.10
2023-01-26T22:09:52.390Z,4.10
2023-01-26T22:12:22.918Z,4.10
2023-01-26T22:14:52.149Z,4.10
2023-01-26T22:17:20.445Z,4.10
2023-01-26T22:19:48.771Z,4.10
2023-01-26T22:22:17.099Z,4.10
2023-01-26T22:24:46.764Z,4.10
2023-01-26T22:27:15.054Z,4.10
2023-01-26T22:29:43.409Z,4.10
2023-01-26T22:32:11.687Z,4.20
2023-01-26T22:34:40.369Z,4.20
2023-01-26T22:37:08.705Z,4.20
2023-01-26T22:39:37.015Z,4.10
2023-01-26T22:42:06.810Z,4.10
2023-01-26T22:44:36.529Z,4.10
2023-01-26T22:47:05.100Z,4.00
2023-01-26T22:49:33.419Z,4.00
2023-01-26T22:52:01.744Z,4.00
2023-01-26T22:54:30.042Z,4.00
2023-01-26T22:56:58.323Z,4.00
2023-01-26T22:59:28.298Z,4.00
2023-01-26T23:01:57.231Z,4.00
2023-01-26T23:04:25.780Z,4.00
2023-01-26T23:06:54.557Z,3.90
2023-01-26T23:09:22.880Z,4.00
2023-01-26T23:12:01.760Z,4.00
2023-01-26T23:14:32.700Z,3.60
2023-01-26T23:17:01.245Z,3.90
2023-01-26T23:19:30.225Z,4.00
2023-01-26T23:21:58.459Z,3.90
2023-01-26T23:24:26.893Z,3.90
2023-01-26T23:26:55.203Z,3.90
2023-01-26T23:29:23.506Z,3.90
2023-01-26T23:31:53.412Z,4.00
2023-01-26T23:34:21.819Z,3.90
2023-01-26T23:36:50.410Z,3.90
2023-01-26T23:39:18.958Z,4.00
2023-01-26T23:41:47.255Z,4.00
2023-01-26T23:44:15.793Z,4.00
2023-01-26T23:46:44.452Z,4.00
2023-01-26T23:49:14.161Z,4.00
2023-01-26T23:51:42.492Z,4.00
2023-01-26T23:54:10.836Z,3.90
2023-01-26T23:56:39.124Z,4.00
2023-01-26T23:59:07.543Z,4.00
